Copeland, Florida
Current Conditions -  °F | °C
As of 11:53 AM on Saturday 25 Oct 2014 (Local Time) from KAPF Reporting Station
Clear Clear  
Wind Chill: 79°   Ceiling: Unl
Heat Index: 80°   Visibility: 10mi
Dew Point: 61°   Wind: 9mph
Humidity: 54%   Direction: 30°NNE
Pressure: 29.96"   Gusts: NA
Location:  25.95°N, 81.36°W
Report Text: KAPF 251553Z 03008KT 10SM CLR 26/16 A2996 RMK AO2 SLP145 T02610161
Loading
Personal Weather Stations






























Interactive Weather Map
Tropical Storm Tracking
New forecast layout! Learn more

10-Day Weather Forecast

Advertisements
Track Severe Weather on mobile